createdAt,value
2019-04-25T00:00:57.404Z,8.31
2019-04-25T00:03:27.452Z,8.33
2019-04-25T00:06:06.752Z,8.27
2019-04-25T00:08:34.172Z,8.26
2019-04-25T00:11:02.950Z,8.07
2019-04-25T00:13:31.716Z,8.12
2019-04-25T00:15:59.267Z,8.12
2019-04-25T00:18:26.836Z,8.15
2019-04-25T00:20:58.917Z,8.16
2019-04-25T00:23:26.395Z,8.31
2019-04-25T00:26:02.570Z,8.17
2019-04-25T00:28:29.751Z,8.24
2019-04-25T00:30:57.262Z,8.31
2019-04-25T00:33:24.726Z,8.21
2019-04-25T00:35:52.782Z,8.23
2019-04-25T00:38:20.194Z,8.20
2019-04-25T00:40:48.075Z,8.10
2019-04-25T00:43:15.622Z,8.11
2019-04-25T00:45:44.309Z,8.08
2019-04-25T00:48:15.478Z,8.11
2019-04-25T00:50:43.426Z,8.05
2019-04-25T00:53:11.789Z,7.99
2019-04-25T00:55:39.067Z,8.01
2019-04-25T00:58:15.200Z,8.04
2019-04-25T01:00:53.372Z,8.05
2019-04-25T01:03:25.212Z,8.05
2019-04-25T01:05:53.666Z,8.01
2019-04-25T01:08:22.059Z,7.91
2019-04-25T01:10:50.402Z,7.90
2019-04-25T01:13:18.780Z,7.97
2019-04-25T01:15:46.416Z,7.93
2019-04-25T01:18:13.854Z,7.93
2019-04-25T01:20:41.129Z,7.92
2019-04-25T01:23:08.621Z,7.85
2019-04-25T01:25:40.925Z,7.84
2019-04-25T01:28:05.540Z,7.73
2019-04-25T01:30:33.979Z,7.72
2019-04-25T01:33:01.449Z,7.64
2019-04-25T01:35:41.256Z,7.59
2019-04-25T01:38:17.649Z,7.55
2019-04-25T01:40:55.621Z,7.53
2019-04-25T01:43:55.149Z,7.54
2019-04-25T01:46:21.846Z,7.51
2019-04-25T01:48:50.083Z,7.42
2019-04-25T01:51:17.751Z,7.46
2019-04-25T01:53:45.115Z,7.34
2019-04-25T01:56:13.544Z,7.27
2019-04-25T01:58:41.316Z,7.27
2019-04-25T02:01:09.110Z,7.28
2019-04-25T02:03:36.526Z,7.22
2019-04-25T02:06:05.053Z,7.19
2019-04-25T02:08:33.977Z,7.20
2019-04-25T02:11:24.085Z,7.18
2019-04-25T02:13:51.517Z,7.13
2019-04-25T02:16:19.026Z,7.17
2019-04-25T02:18:46.285Z,7.13
2019-04-25T02:21:13.866Z,7.13
2019-04-25T02:23:41.516Z,7.00
2019-04-25T02:26:15.630Z,7.02
2019-04-25T02:28:38.026Z,6.97
2019-04-25T02:31:08.615Z,7.05
2019-04-25T02:33:34.441Z,7.05
2019-04-25T02:36:04.073Z,7.06
2019-04-25T02:38:31.081Z,7.02
2019-04-25T02:40:59.493Z,7.00
2019-04-25T02:43:27.723Z,7.00
2019-04-25T02:46:34.811Z,6.95
2019-04-25T02:49:29.966Z,6.92
2019-04-25T02:52:00.774Z,6.94
2019-04-25T02:54:28.436Z,6.89
2019-04-25T02:56:56.997Z,6.80
2019-04-25T02:59:25.358Z,6.88
2019-04-25T03:01:54.172Z,6.88
2019-04-25T03:04:23.897Z,6.89
2019-04-25T03:06:51.022Z,6.92
2019-04-25T03:09:18.292Z,6.83
2019-04-25T03:11:47.709Z,6.82
2019-04-25T03:14:15.006Z,6.82
2019-04-25T03:16:44.644Z,6.81
2019-04-25T03:19:30.310Z,6.82
2019-04-25T03:22:00.167Z,6.89
2019-04-25T03:24:28.277Z,6.81
2019-04-25T03:26:55.634Z,6.78
2019-04-25T03:29:24.671Z,6.82
2019-04-25T03:31:52.285Z,6.72
2019-04-25T03:34:20.752Z,6.64
2019-04-25T03:36:48.204Z,6.64
2019-04-25T03:39:16.518Z,6.70
2019-04-25T03:41:45.459Z,6.71
2019-04-25T03:44:16.702Z,6.65
2019-04-25T03:46:44.192Z,6.65
2019-04-25T03:49:11.860Z,6.72
2019-04-25T03:51:39.157Z,6.69
2019-04-25T03:54:07.498Z,6.70
2019-04-25T03:56:35.816Z,6.62
2019-04-25T03:59:05.824Z,6.55
2019-04-25T04:01:34.153Z,6.57
2019-04-25T04:04:04.313Z,6.60
2019-04-25T04:06:30.862Z,6.52
2019-04-25T04:08:57.996Z,6.55
2019-04-25T04:11:25.121Z,6.44
2019-04-25T04:13:53.516Z,6.41
2019-04-25T04:16:23.951Z,6.45
2019-04-25T04:18:54.091Z,6.55
2019-04-25T04:21:46.970Z,6.47
2019-04-25T04:24:34.237Z,6.46
2019-04-25T04:27:17.817Z,6.45
2019-04-25T04:29:45.066Z,6.47
2019-04-25T04:32:14.103Z,6.43
2019-04-25T04:34:45.097Z,6.40
2019-04-25T04:37:11.163Z,6.37
2019-04-25T04:39:38.516Z,6.35
2019-04-25T04:42:05.700Z,6.39
2019-04-25T04:44:34.323Z,6.34
2019-04-25T04:47:04.010Z,6.33
2019-04-25T04:49:31.784Z,6.28
2019-04-25T04:51:59.137Z,6.39
2019-04-25T04:54:26.353Z,6.38
2019-04-25T04:56:53.726Z,6.37
2019-04-25T04:59:20.907Z,6.48
2019-04-25T05:02:06.381Z,6.57
2019-04-25T05:04:43.670Z,6.60
2019-04-25T05:07:30.725Z,6.60
2019-04-25T05:09:57.883Z,6.56
2019-04-25T05:12:25.038Z,6.62
2019-04-25T05:14:53.684Z,6.65
2019-04-25T05:17:21.825Z,6.73
2019-04-25T05:19:49.256Z,6.77
2019-04-25T05:22:16.855Z,6.80
2019-04-25T05:24:44.166Z,6.86
2019-04-25T05:27:12.771Z,6.93
2019-04-25T05:29:40.601Z,7.07
2019-04-25T05:32:07.830Z,7.06
2019-04-25T05:34:35.203Z,7.12
2019-04-25T05:37:03.811Z,7.34
2019-04-25T05:39:31.153Z,7.54
2019-04-25T05:42:07.735Z,7.68
2019-04-25T05:44:35.209Z,7.90
2019-04-25T05:47:04.114Z,8.42
2019-04-25T05:49:31.748Z,9.35
2019-04-25T05:51:59.111Z,9.96
2019-04-25T05:54:26.907Z,10.11
2019-04-25T05:56:54.429Z,10.33
2019-04-25T05:59:21.932Z,10.60
2019-04-25T06:01:49.414Z,10.72
2019-04-25T06:04:17.873Z,10.54
2019-04-25T06:06:45.126Z,10.52
2019-04-25T06:09:31.918Z,10.47
2019-04-25T06:12:10.498Z,10.35
2019-04-25T06:14:37.756Z,10.50
2019-04-25T06:17:08.678Z,10.54
2019-04-25T06:19:40.351Z,10.47
2019-04-25T06:22:13.103Z,10.48
2019-04-25T06:24:46.494Z,10.41
2019-04-25T06:27:28.401Z,10.48
2019-04-25T06:30:10.816Z,10.53
2019-04-25T06:32:38.071Z,10.49
2019-04-25T06:35:06.600Z,10.57
2019-04-25T06:37:35.042Z,10.72
2019-04-25T06:40:05.099Z,10.63
2019-04-25T06:42:34.678Z,10.81
2019-04-25T06:45:26.630Z,10.98
2019-04-25T06:48:16.144Z,11.17
2019-04-25T06:50:43.836Z,11.14
2019-04-25T06:53:11.066Z,11.24
2019-04-25T06:55:38.213Z,11.46
2019-04-25T06:58:11.717Z,11.65
2019-04-25T07:00:40.947Z,11.75
2019-04-25T07:03:04.551Z,11.84
2019-04-25T07:05:35.884Z,11.87
2019-04-25T07:08:01.285Z,11.84
2019-04-25T07:10:29.438Z,11.88
2019-04-25T07:12:56.885Z,11.84
2019-04-25T07:15:24.935Z,11.84
2019-04-25T07:17:54.050Z,11.92
2019-04-25T07:20:24.672Z,11.87
2019-04-25T07:22:51.265Z,11.93
2019-04-25T07:25:19.921Z,11.88
2019-04-25T07:28:27.163Z,11.96
2019-04-25T07:31:09.769Z,11.87
2019-04-25T07:33:59.874Z,11.94
2019-04-25T07:36:28.156Z,12.09
2019-04-25T07:39:07.663Z,11.97
2019-04-25T07:41:25.958Z,12.17
2019-04-25T07:43:53.383Z,12.19
2019-04-25T07:46:20.822Z,12.28
2019-04-25T07:48:48.103Z,12.36
2019-04-25T07:51:16.496Z,12.39
2019-04-25T07:53:44.070Z,12.43
2019-04-25T07:56:11.568Z,12.48
2019-04-25T07:58:49.541Z,12.60
2019-04-25T08:01:10.767Z,12.72
2019-04-25T08:03:38.116Z,12.76
2019-04-25T08:06:08.772Z,12.85
2019-04-25T08:08:36.155Z,12.98
2019-04-25T08:11:06.573Z,13.11
2019-04-25T08:13:56.888Z,13.15
2019-04-25T08:16:26.067Z,13.22
2019-04-25T08:18:54.083Z,13.42
2019-04-25T08:21:23.784Z,13.48
2019-04-25T08:23:53.336Z,13.81
2019-04-25T08:26:21.058Z,13.88
2019-04-25T08:28:54.439Z,14.12
2019-04-25T08:31:18.006Z,14.19
2019-04-25T08:33:46.546Z,14.26
2019-04-25T08:36:14.100Z,14.52
2019-04-25T08:38:42.413Z,14.63
2019-04-25T08:41:10.416Z,14.83
2019-04-25T08:43:39.422Z,15.12
2019-04-25T08:46:07.261Z,15.12
2019-04-25T08:48:54.169Z,15.27
2019-04-25T08:51:23.403Z,15.51
2019-04-25T08:53:59.015Z,15.60
2019-04-25T08:56:31.208Z,15.97
2019-04-25T08:59:17.680Z,15.95
2019-04-25T09:01:54.743Z,16.35
2019-04-25T09:04:47.755Z,16.75
2019-04-25T09:07:15.022Z,16.93
2019-04-25T09:09:44.012Z,17.47
2019-04-25T09:12:11.468Z,17.44
2019-04-25T09:14:41.551Z,17.64
2019-04-25T09:17:08.951Z,17.99
2019-04-25T09:19:37.169Z,18.22
2019-04-25T09:22:05.437Z,18.55
2019-04-25T09:24:36.668Z,18.87
2019-04-25T09:27:04.057Z,19.14
2019-04-25T09:29:31.318Z,19.71
2019-04-25T09:31:58.563Z,20.04
2019-04-25T09:34:25.826Z,20.43
2019-04-25T09:36:53.594Z,20.79
2019-04-25T09:39:29.071Z,21.29
2019-04-25T09:41:56.351Z,21.44
2019-04-25T09:44:28.887Z,21.84
2019-04-25T09:46:56.351Z,22.11
2019-04-25T09:49:28.432Z,22.43
2019-04-25T09:51:59.715Z,22.54
2019-04-25T09:54:36.213Z,22.91
2019-04-25T09:57:39.794Z,23.12
2019-04-25T10:00:14.669Z,23.12
2019-04-25T10:02:42.336Z,23.32
2019-04-25T10:05:09.836Z,23.46
2019-04-25T10:07:37.338Z,23.70
2019-04-25T10:10:06.788Z,23.89
2019-04-25T10:12:34.296Z,23.96
2019-04-25T10:15:43.024Z,24.18
2019-04-25T10:18:25.743Z,24.42
2019-04-25T10:20:54.230Z,24.63
2019-04-25T10:23:22.054Z,24.49
2019-04-25T10:25:50.412Z,24.50
2019-04-25T10:28:17.818Z,24.54
2019-04-25T10:30:45.280Z,24.61
2019-04-25T10:33:14.635Z,24.75
2019-04-25T10:35:52.026Z,24.49
2019-04-25T10:38:13.929Z,24.86
2019-04-25T10:40:45.133Z,25.13
2019-04-25T10:43:14.232Z,25.28
2019-04-25T10:45:44.357Z,25.41
2019-04-25T10:48:13.691Z,25.57
2019-04-25T10:50:41.725Z,25.78
2019-04-25T10:53:09.292Z,25.90
2019-04-25T10:55:36.794Z,26.08
2019-04-25T10:58:04.182Z,26.19
2019-04-25T11:00:42.247Z,26.30
2019-04-25T11:03:29.413Z,26.45
2019-04-25T11:05:57.196Z,26.53
2019-04-25T11:08:24.779Z,26.68
2019-04-25T11:10:53.805Z,26.59
2019-04-25T11:13:22.297Z,26.53
2019-04-25T11:15:50.538Z,26.60
2019-04-25T11:18:17.971Z,26.57
2019-04-25T11:20:45.442Z,26.66
2019-04-25T11:23:14.000Z,26.71
2019-04-25T11:25:41.660Z,26.83
2019-04-25T11:28:09.563Z,26.90
2019-04-25T11:30:37.103Z,27.02
2019-04-25T11:33:05.235Z,26.87
2019-04-25T11:35:34.216Z,27.05
2019-04-25T11:38:05.501Z,27.11
2019-04-25T11:40:38.535Z,27.15
2019-04-25T11:43:06.115Z,27.13
2019-04-25T11:45:34.668Z,27.03
2019-04-25T11:48:02.131Z,27.24
2019-04-25T11:50:29.714Z,27.24
2019-04-25T11:52:57.110Z,27.41
2019-04-25T11:55:24.620Z,27.57
2019-04-25T11:57:53.174Z,27.79
2019-04-25T12:00:24.808Z,28.01
2019-04-25T12:02:52.710Z,28.07
2019-04-25T12:05:20.184Z,28.08
2019-04-25T12:07:47.922Z,27.47
2019-04-25T12:10:16.479Z,27.88
2019-04-25T12:12:47.264Z,27.77
2019-04-25T12:15:15.100Z,27.73
2019-04-25T12:17:42.566Z,27.93
2019-04-25T12:20:10.844Z,28.16
2019-04-25T12:22:38.309Z,28.23
2019-04-25T12:25:06.193Z,28.15
2019-04-25T12:27:33.663Z,28.23
2019-04-25T12:30:05.462Z,28.21
2019-04-25T12:32:35.042Z,27.98
2019-04-25T12:35:04.117Z,27.89
2019-04-25T12:37:33.639Z,28.02
2019-04-25T12:40:04.055Z,28.18
2019-04-25T12:42:30.649Z,28.17
2019-04-25T12:45:14.330Z,27.98
2019-04-25T12:47:43.477Z,28.15
2019-04-25T12:50:11.442Z,28.33
2019-04-25T12:52:38.816Z,28.77
2019-04-25T12:55:07.111Z,28.86
2019-04-25T12:57:34.503Z,28.86
2019-04-25T13:00:01.817Z,28.93
2019-04-25T13:02:34.550Z,29.14
2019-04-25T13:05:04.352Z,29.27
2019-04-25T13:07:33.020Z,29.38
2019-04-25T13:10:00.364Z,29.68
2019-04-25T13:12:40.507Z,29.24
2019-04-25T13:15:09.811Z,29.34
2019-04-25T13:17:38.197Z,28.95
2019-04-25T13:20:05.845Z,28.94
2019-04-25T13:22:39.611Z,29.07
2019-04-25T13:25:08.515Z,29.16
2019-04-25T13:27:45.620Z,29.10
2019-04-25T13:30:31.705Z,29.05
2019-04-25T13:33:29.701Z,29.12
2019-04-25T13:36:02.646Z,29.05
2019-04-25T13:38:30.125Z,28.87
2019-04-25T13:40:58.251Z,28.84
2019-04-25T13:43:25.796Z,28.68
2019-04-25T13:45:53.181Z,28.51
2019-04-25T13:48:20.454Z,28.46
2019-04-25T13:50:48.142Z,28.25
2019-04-25T13:53:15.660Z,28.31
2019-04-25T13:55:42.939Z,28.36
2019-04-25T13:58:11.390Z,28.12
2019-04-25T14:00:38.961Z,28.02
2019-04-25T14:03:06.305Z,28.03
2019-04-25T14:05:35.263Z,28.15
2019-04-25T14:08:02.860Z,28.14
2019-04-25T14:10:30.758Z,28.26
2019-04-25T14:12:58.245Z,28.19
2019-04-25T14:15:34.305Z,28.42
2019-04-25T14:18:24.158Z,28.52
2019-04-25T14:21:03.750Z,28.67
2019-04-25T14:23:31.319Z,28.70
2019-04-25T14:25:58.478Z,28.63
2019-04-25T14:28:29.325Z,28.57
2019-04-25T14:30:55.062Z,28.71
2019-04-25T14:33:24.865Z,28.61
2019-04-25T14:35:53.467Z,28.53
2019-04-25T14:38:21.220Z,28.77
2019-04-25T14:40:48.637Z,28.73
2019-04-25T14:43:15.905Z,28.76
2019-04-25T14:45:45.109Z,28.83
2019-04-25T14:48:12.829Z,28.91
2019-04-25T14:50:40.104Z,28.88
2019-04-25T14:53:07.528Z,28.87
2019-04-25T14:55:54.561Z,29.01
2019-04-25T14:58:26.136Z,28.98
2019-04-25T15:00:53.660Z,29.03
2019-04-25T15:03:21.269Z,29.07
2019-04-25T15:05:51.012Z,29.15
2019-04-25T15:08:20.364Z,29.12
2019-04-25T15:10:50.294Z,29.19
2019-04-25T15:13:27.760Z,29.01
2019-04-25T15:15:56.417Z,29.12
2019-04-25T15:18:24.737Z,28.99
2019-04-25T15:20:52.054Z,28.97
2019-04-25T15:23:19.235Z,29.16
2019-04-25T15:25:46.478Z,29.18
2019-04-25T15:28:13.835Z,29.09
2019-04-25T15:30:41.243Z,29.12
2019-04-25T15:33:08.610Z,28.95
2019-04-25T15:35:47.937Z,29.05
2019-04-25T15:38:21.761Z,29.08
2019-04-25T15:41:02.555Z,29.07
2019-04-25T15:43:37.332Z,29.09
2019-04-25T15:46:13.270Z,29.03
2019-04-25T15:48:40.631Z,29.02
2019-04-25T15:51:07.903Z,29.16
2019-04-25T15:53:35.436Z,29.14
2019-04-25T15:56:02.903Z,29.08
2019-04-25T15:58:30.234Z,29.17
2019-04-25T16:00:57.595Z,29.10
2019-04-25T16:03:24.958Z,28.70
2019-04-25T16:05:52.534Z,28.72
2019-04-25T16:08:19.708Z,28.64
2019-04-25T16:10:47.051Z,28.47
2019-04-25T16:13:14.397Z,28.29
2019-04-25T16:15:41.656Z,28.31
2019-04-25T16:18:10.109Z,28.24
2019-04-25T16:20:37.367Z,28.13
2019-04-25T16:23:05.738Z,28.12
2019-04-25T16:25:33.362Z,28.05
2019-04-25T16:28:00.754Z,28.05
2019-04-25T16:30:31.183Z,27.99
2019-04-25T16:32:58.564Z,28.00
2019-04-25T16:35:25.708Z,27.81
2019-04-25T16:37:52.990Z,27.72
2019-04-25T16:40:20.338Z,27.57
2019-04-25T16:42:51.071Z,27.58
2019-04-25T16:45:18.452Z,27.49
2019-04-25T16:47:45.827Z,27.40
2019-04-25T16:50:13.905Z,27.28
2019-04-25T16:52:41.267Z,27.18
2019-04-25T16:55:10.708Z,27.10
2019-04-25T16:57:38.008Z,26.93
2019-04-25T17:00:09.723Z,26.90
2019-04-25T17:02:40.714Z,26.81
2019-04-25T17:05:07.181Z,26.76
2019-04-25T17:07:34.588Z,26.51
2019-04-25T17:10:02.798Z,26.60
2019-04-25T17:12:31.150Z,26.60
2019-04-25T17:15:15.332Z,26.35
2019-04-25T17:18:07.333Z,26.49
2019-04-25T17:20:39.739Z,26.44
2019-04-25T17:23:07.938Z,26.49
2019-04-25T17:25:48.015Z,26.48
2019-04-25T17:28:16.567Z,26.42
2019-04-25T17:30:46.238Z,26.37
2019-04-25T17:33:40.293Z,26.28
2019-04-25T17:36:22.020Z,26.16
2019-04-25T17:39:18.083Z,25.96
2019-04-25T17:41:45.286Z,25.94
2019-04-25T17:44:12.643Z,25.79
2019-04-25T17:47:05.656Z,25.69
2019-04-25T17:49:23.134Z,25.68
2019-04-25T17:51:50.451Z,25.58
2019-04-25T17:54:18.517Z,25.57
2019-04-25T17:56:46.086Z,25.46
2019-04-25T17:59:13.411Z,25.41
2019-04-25T18:01:40.885Z,25.30
2019-04-25T18:04:08.788Z,25.20
2019-04-25T18:06:37.665Z,25.01
2019-04-25T18:09:06.572Z,24.57
2019-04-25T18:11:34.738Z,24.52
2019-04-25T18:14:02.685Z,24.42
2019-04-25T18:16:38.355Z,24.37
2019-04-25T18:19:13.370Z,24.24
2019-04-25T18:21:41.033Z,23.83
2019-04-25T18:24:37.262Z,23.65
2019-04-25T18:27:14.445Z,23.29
2019-04-25T18:29:42.000Z,23.16
2019-04-25T18:32:10.088Z,22.98
2019-04-25T18:34:44.480Z,22.93
2019-04-25T18:37:19.965Z,22.62
2019-04-25T18:39:55.542Z,22.56
2019-04-25T18:42:41.964Z,22.19
2019-04-25T18:45:12.964Z,21.96
2019-04-25T18:47:40.714Z,21.89
2019-04-25T18:50:10.656Z,21.60
2019-04-25T18:53:04.052Z,21.53
2019-04-25T18:55:41.258Z,21.33
2019-04-25T18:58:16.361Z,21.43
2019-04-25T19:00:52.456Z,21.35
2019-04-25T19:03:39.477Z,21.05
2019-04-25T19:06:10.342Z,20.89
2019-04-25T19:08:38.560Z,20.92
2019-04-25T19:11:07.612Z,20.84
2019-04-25T19:13:35.362Z,20.84
2019-04-25T19:16:03.241Z,20.70
2019-04-25T19:18:31.645Z,20.43
2019-04-25T19:20:59.291Z,20.40
2019-04-25T19:23:26.953Z,20.31
2019-04-25T19:25:55.235Z,20.12
2019-04-25T19:28:24.064Z,20.17
2019-04-25T19:30:52.329Z,19.99
2019-04-25T19:33:34.543Z,19.84
2019-04-25T19:35:52.263Z,19.69
2019-04-25T19:38:20.404Z,19.64
2019-04-25T19:41:06.718Z,19.49
2019-04-25T19:43:44.478Z,19.41
2019-04-25T19:46:12.502Z,19.10
2019-04-25T19:48:41.231Z,18.95
2019-04-25T19:51:09.368Z,18.71
2019-04-25T19:53:37.246Z,18.74
2019-04-25T19:56:05.013Z,18.76
2019-04-25T19:58:33.758Z,18.54
2019-04-25T20:01:01.982Z,18.30
2019-04-25T20:03:54.961Z,18.46
2019-04-25T20:06:37.233Z,18.20
2019-04-25T20:09:19.660Z,18.12
2019-04-25T20:11:49.393Z,17.94
2019-04-25T20:14:16.962Z,17.85
2019-04-25T20:16:46.077Z,17.77
2019-04-25T20:19:13.884Z,17.78
2019-04-25T20:21:41.552Z,17.53
2019-04-25T20:24:09.327Z,17.35
2019-04-25T20:26:37.205Z,17.35
2019-04-25T20:29:04.947Z,17.15
2019-04-25T20:31:32.923Z,17.23
2019-04-25T20:34:05.868Z,17.15
2019-04-25T20:36:30.278Z,17.11
2019-04-25T20:38:57.884Z,16.99
2019-04-25T20:41:25.342Z,16.98
2019-04-25T20:44:07.300Z,16.94
2019-04-25T20:46:34.707Z,16.88
2019-04-25T20:49:02.105Z,16.74
2019-04-25T20:51:29.669Z,16.80
2019-04-25T20:53:57.124Z,16.46
2019-04-25T20:56:24.408Z,16.45
2019-04-25T20:58:51.597Z,16.53
2019-04-25T21:01:18.762Z,16.38
2019-04-25T21:03:46.034Z,16.36
2019-04-25T21:06:18.990Z,16.38
2019-04-25T21:08:46.165Z,16.25
2019-04-25T21:11:13.753Z,16.17
2019-04-25T21:14:01.481Z,15.95
2019-04-25T21:16:47.568Z,16.04
2019-04-25T21:19:17.471Z,15.94
2019-04-25T21:21:44.724Z,16.02
2019-04-25T21:24:12.218Z,15.66
2019-04-25T21:26:39.642Z,15.80
2019-04-25T21:29:07.001Z,15.88
2019-04-25T21:31:34.160Z,15.88
2019-04-25T21:34:01.581Z,15.66
2019-04-25T21:36:29.111Z,15.72
2019-04-25T21:38:56.470Z,15.61
2019-04-25T21:41:56.575Z,15.72
2019-04-25T21:44:24.162Z,15.39
2019-04-25T21:46:52.177Z,15.37
2019-04-25T21:49:20.654Z,15.51
2019-04-25T21:51:47.814Z,15.49
2019-04-25T21:54:14.978Z,15.21
2019-04-25T21:56:42.745Z,15.28
2019-04-25T21:59:10.453Z,15.17
2019-04-25T22:01:40.903Z,15.33
2019-04-25T22:04:15.277Z,15.27
2019-04-25T22:06:46.356Z,15.34
2019-04-25T22:09:16.795Z,15.11
2019-04-25T22:11:44.639Z,15.10
2019-04-25T22:14:13.139Z,15.16
2019-04-25T22:16:42.813Z,15.19
2019-04-25T22:19:10.698Z,15.08
2019-04-25T22:21:40.728Z,15.01
2019-04-25T22:24:11.268Z,15.04
2019-04-25T22:26:37.476Z,15.00
2019-04-25T22:29:05.644Z,14.94
2019-04-25T22:31:41.762Z,14.95
2019-04-25T22:34:20.356Z,14.91
2019-04-25T22:36:47.887Z,14.80
2019-04-25T22:39:15.287Z,14.74
2019-04-25T22:41:46.510Z,14.74
2019-04-25T22:44:15.707Z,14.58
2019-04-25T22:46:43.644Z,14.52
2019-04-25T22:49:11.824Z,14.52
2019-04-25T22:51:39.413Z,14.38
2019-04-25T22:54:07.429Z,14.25
2019-04-25T22:56:35.333Z,14.24
2019-04-25T22:59:04.833Z,14.27
2019-04-25T23:02:07.583Z,14.13
2019-04-25T23:05:09.047Z,14.10
2019-04-25T23:07:30.299Z,14.08
2019-04-25T23:09:58.061Z,13.91
2019-04-25T23:12:25.944Z,13.94
2019-04-25T23:14:54.214Z,13.83
2019-04-25T23:17:21.594Z,13.70
2019-04-25T23:19:49.180Z,13.64
2019-04-25T23:22:18.305Z,13.55
2019-04-25T23:24:54.842Z,13.51
2019-04-25T23:27:44.341Z,13.43
2019-04-25T23:30:14.649Z,13.44
2019-04-25T23:32:48.641Z,13.47
2019-04-25T23:35:28.577Z,13.24
2019-04-25T23:37:45.164Z,13.14
2019-04-25T23:40:13.650Z,13.08
2019-04-25T23:42:41.254Z,13.10
2019-04-25T23:45:10.264Z,13.17
2019-04-25T23:47:37.468Z,13.04
2019-04-25T23:50:07.033Z,12.99
2019-04-25T23:52:34.708Z,12.90
2019-04-25T23:55:02.131Z,12.95
2019-04-25T23:57:29.636Z,12.91
2019-04-25T23:59:57.150Z,12.81
